createdAt,value
2023-05-25T00:01:03.149Z,9.50
2023-05-25T00:06:05.797Z,10.00
2023-05-25T00:11:07.728Z,9.80
2023-05-25T00:16:09.484Z,8.00
2023-05-25T00:21:11.980Z,8.50
2023-05-25T00:26:13.722Z,8.80
2023-05-25T00:31:15.705Z,9.60
2023-05-25T00:36:18.200Z,9.10
2023-05-25T00:41:20.940Z,9.10
2023-05-25T00:46:23.866Z,9.40
2023-05-25T00:51:26.462Z,9.40
2023-05-25T00:56:33.130Z,9.80
2023-05-25T01:01:40.295Z,9.20
2023-05-25T01:06:47.150Z,9.70
2023-05-25T01:11:51.374Z,10.10
2023-05-25T01:16:55.358Z,9.20
2023-05-25T01:22:08.102Z,10.70
2023-05-25T01:27:21.223Z,10.10
2023-05-25T01:32:25.004Z,9.50
2023-05-25T01:37:27.863Z,10.10
2023-05-25T01:42:31.858Z,9.60
2023-05-25T01:48:11.683Z,9.50
2023-05-25T01:53:23.907Z,9.50
2023-05-25T01:58:27.447Z,9.70
2023-05-25T02:03:29.333Z,9.30
2023-05-25T02:08:31.278Z,8.60
2023-05-25T02:13:34.956Z,9.90
2023-05-25T02:18:37.234Z,10.60
2023-05-25T02:23:39.057Z,9.80
2023-05-25T02:28:41.271Z,9.30
2023-05-25T02:33:43.087Z,9.60
2023-05-25T02:38:45.614Z,9.90
2023-05-25T02:43:48.144Z,9.40
2023-05-25T02:48:50.688Z,10.80
2023-05-25T02:53:53.309Z,10.50
2023-05-25T02:58:55.529Z,9.40
2023-05-25T03:04:15.616Z,10.40
2023-05-25T03:09:18.586Z,9.70
2023-05-25T03:14:22.565Z,9.90
2023-05-25T03:19:29.671Z,10.30
2023-05-25T03:24:31.493Z,8.30
2023-05-25T03:29:35.945Z,9.10
2023-05-25T03:34:38.396Z,9.90
2023-05-25T03:39:40.547Z,9.30
2023-05-25T03:44:42.898Z,11.10
2023-05-25T03:49:45.172Z,10.60
2023-05-25T03:54:48.055Z,9.50
2023-05-25T03:59:50.124Z,10.30
2023-05-25T04:07:13.464Z,13.10
2023-05-25T04:12:15.304Z,13.50
2023-05-25T04:17:19.096Z,11.90
2023-05-25T04:22:21.405Z,13.40
2023-05-25T04:27:23.268Z,12.00
2023-05-25T04:32:29.872Z,13.60
2023-05-25T04:38:12.452Z,12.60
2023-05-25T04:43:18.180Z,14.30
2023-05-25T04:48:21.615Z,13.30
2023-05-25T04:53:23.702Z,14.40
2023-05-25T04:58:26.191Z,14.50
2023-05-25T05:03:38.140Z,18.60
2023-05-25T05:08:41.802Z,17.50
2023-05-25T05:13:48.231Z,17.50
2023-05-25T05:18:50.660Z,17.80
2023-05-25T05:23:52.583Z,16.80
2023-05-25T05:28:54.663Z,18.00
2023-05-25T05:33:57.436Z,17.80
2023-05-25T05:39:01.059Z,17.60
2023-05-25T05:44:03.696Z,16.40
2023-05-25T05:49:05.458Z,17.30
2023-05-25T05:54:07.225Z,17.00
2023-05-25T05:59:11.806Z,15.70
2023-05-25T06:04:15.032Z,13.90
2023-05-25T06:09:17.806Z,15.20
2023-05-25T06:14:19.658Z,15.40
2023-05-25T06:19:21.529Z,14.20
2023-05-25T06:24:23.284Z,12.50
2023-05-25T06:29:25.246Z,12.70
2023-05-25T06:34:27.234Z,14.70
2023-05-25T06:39:29.212Z,14.50
2023-05-25T06:44:31.103Z,12.00
2023-05-25T06:49:36.734Z,14.00
2023-05-25T06:54:38.553Z,11.40
2023-05-25T06:59:40.468Z,10.10
2023-05-25T07:04:42.444Z,10.50
2023-05-25T07:09:44.334Z,9.00
2023-05-25T07:14:48.385Z,10.00
2023-05-25T07:19:50.123Z,8.60
2023-05-25T07:24:51.834Z,10.30
2023-05-25T07:29:53.921Z,10.10
2023-05-25T07:34:55.987Z,10.90
2023-05-25T07:39:57.983Z,9.80
2023-05-25T07:45:01.298Z,11.40
2023-05-25T07:50:03.244Z,10.50
2023-05-25T07:55:09.002Z,9.80
2023-05-25T08:00:12.782Z,11.20
2023-05-25T08:05:17.282Z,11.30
2023-05-25T08:10:19.407Z,8.90
2023-05-25T08:15:21.391Z,9.10
2023-05-25T08:20:25.237Z,9.20
2023-05-25T08:25:26.985Z,9.60
2023-05-25T08:30:29.264Z,8.40
2023-05-25T08:35:31.082Z,9.10
2023-05-25T08:40:32.810Z,9.80
2023-05-25T08:45:36.712Z,8.60
2023-05-25T08:50:41.366Z,11.00
2023-05-25T08:55:44.066Z,10.10
2023-05-25T09:00:55.811Z,9.80
2023-05-25T09:05:58.170Z,9.60
2023-05-25T09:11:02.422Z,10.70
2023-05-25T09:16:04.906Z,10.30
2023-05-25T09:21:06.615Z,10.30
2023-05-25T09:26:08.940Z,8.90
2023-05-25T09:31:10.973Z,8.50
2023-05-25T09:36:15.402Z,9.00
2023-05-25T09:41:17.213Z,8.50
2023-05-25T09:46:19.037Z,8.40
2023-05-25T09:51:21.758Z,8.60
2023-05-25T09:56:24.725Z,8.70
2023-05-25T10:01:27.358Z,8.20
2023-05-25T10:06:29.505Z,7.50
2023-05-25T10:11:33.920Z,8.70
2023-05-25T10:16:41.449Z,9.30
2023-05-25T10:22:14.082Z,9.90
2023-05-25T10:32:44.517Z,7.90
2023-05-25T10:37:47.732Z,7.80
2023-05-25T10:42:52.297Z,7.50
2023-05-25T10:47:54.134Z,7.80
2023-05-25T10:53:00.142Z,7.40
2023-05-25T10:58:10.482Z,8.30
2023-05-25T11:03:12.350Z,7.80
2023-05-25T11:08:17.764Z,8.00
2023-05-25T11:13:31.652Z,8.50
2023-05-25T11:18:41.637Z,8.60
2023-05-25T11:24:00.081Z,8.50
2023-05-25T11:29:15.938Z,8.70
2023-05-25T11:34:18.807Z,9.00
2023-05-25T11:39:23.406Z,9.00
2023-05-25T11:44:33.915Z,9.20
2023-05-25T11:49:42.040Z,10.70
2023-05-25T11:54:44.799Z,9.50
2023-05-25T12:00:02.054Z,10.30
2023-05-25T12:05:08.500Z,12.40
2023-05-25T12:10:13.078Z,12.10
2023-05-25T12:15:25.816Z,13.00
2023-05-25T12:20:27.776Z,12.60
2023-05-25T12:25:46.090Z,12.00
2023-05-25T12:30:52.041Z,10.60
2023-05-25T12:35:55.776Z,11.90
2023-05-25T12:41:07.967Z,11.20
2023-05-25T12:46:10.075Z,10.20
2023-05-25T12:51:12.310Z,11.30
2023-05-25T12:56:14.076Z,13.20
2023-05-25T13:01:16.092Z,13.20
2023-05-25T13:06:18.078Z,12.50
2023-05-25T13:11:19.795Z,14.10
2023-05-25T13:16:21.623Z,13.60
2023-05-25T13:21:23.617Z,12.40
2023-05-25T13:26:25.765Z,12.40
2023-05-25T13:31:27.821Z,12.80
2023-05-25T13:36:29.971Z,12.20
2023-05-25T13:41:31.761Z,12.00
2023-05-25T13:46:35.386Z,14.60
2023-05-25T13:51:38.356Z,13.80
2023-05-25T13:56:42.425Z,12.40
2023-05-25T14:01:44.356Z,10.80
2023-05-25T14:06:46.527Z,11.20
2023-05-25T14:11:48.500Z,12.50
2023-05-25T14:16:50.249Z,12.10
2023-05-25T14:22:11.220Z,12.50
2023-05-25T14:27:21.285Z,13.20
2023-05-25T14:32:22.997Z,14.10
2023-05-25T14:37:24.795Z,13.00
2023-05-25T14:42:27.147Z,11.40
2023-05-25T14:47:28.948Z,11.90
2023-05-25T14:52:30.800Z,12.40
2023-05-25T14:57:32.534Z,11.60
2023-05-25T15:02:34.368Z,11.70
2023-05-25T15:07:36.278Z,11.70
2023-05-25T15:12:38.054Z,12.00
2023-05-25T15:17:40.138Z,11.50
2023-05-25T15:22:42.036Z,11.60
2023-05-25T15:27:43.777Z,12.30
2023-05-25T15:32:45.534Z,13.10
2023-05-25T15:37:48.334Z,14.20
2023-05-25T15:42:50.368Z,13.10
2023-05-25T15:47:52.217Z,12.60
2023-05-25T15:52:54.073Z,15.10
2023-05-25T15:57:55.830Z,13.50
2023-05-25T16:02:58.283Z,14.40
2023-05-25T16:08:00.100Z,15.00
2023-05-25T16:13:01.887Z,13.20
2023-05-25T16:18:03.885Z,16.70
2023-05-25T16:23:06.451Z,16.30
2023-05-25T16:28:08.135Z,12.90
2023-05-25T16:33:09.944Z,13.70
2023-05-25T16:38:11.674Z,12.90
2023-05-25T16:43:13.381Z,13.80
2023-05-25T16:48:15.431Z,13.60
2023-05-25T16:53:17.285Z,13.90
2023-05-25T16:58:19.025Z,13.00
2023-05-25T17:03:20.734Z,12.90
2023-05-25T17:08:22.604Z,14.70
2023-05-25T17:13:24.291Z,15.90
2023-05-25T17:18:26.966Z,14.40
2023-05-25T17:23:28.803Z,16.20
2023-05-25T17:28:32.870Z,15.00
2023-05-25T17:33:34.639Z,15.00
2023-05-25T17:38:38.100Z,15.60
2023-05-25T17:43:39.800Z,15.50
2023-05-25T17:48:41.458Z,14.50
2023-05-25T17:53:43.150Z,13.90
2023-05-25T17:58:47.642Z,13.60
2023-05-25T18:03:53.953Z,14.60
2023-05-25T18:08:56.655Z,16.00
2023-05-25T18:13:58.446Z,15.30
2023-05-25T18:19:00.222Z,14.90
2023-05-25T18:24:01.923Z,14.40
2023-05-25T18:29:03.715Z,14.50
2023-05-25T18:34:06.918Z,14.60
2023-05-25T18:39:08.700Z,15.90
2023-05-25T18:44:10.492Z,16.20
2023-05-25T18:49:12.677Z,15.90
2023-05-25T18:54:14.397Z,17.50
2023-05-25T18:59:16.508Z,17.60
2023-05-25T19:04:18.421Z,17.30
2023-05-25T19:09:20.158Z,18.00
2023-05-25T19:14:21.890Z,19.00
2023-05-25T19:19:23.607Z,19.20
2023-05-25T19:24:25.311Z,21.30
2023-05-25T19:29:27.125Z,22.80
2023-05-25T19:34:28.863Z,20.80
2023-05-25T19:39:31.787Z,19.80
2023-05-25T19:44:33.468Z,19.80
2023-05-25T19:49:35.219Z,18.00
2023-05-25T19:54:38.078Z,19.90
2023-05-25T19:59:39.847Z,18.50
2023-05-25T20:04:41.520Z,19.90
2023-05-25T20:09:44.076Z,18.80
2023-05-25T20:14:45.754Z,20.00
2023-05-25T20:19:47.502Z,21.10
2023-05-25T20:24:50.167Z,22.50
2023-05-25T20:29:51.950Z,23.30
2023-05-25T20:34:53.646Z,23.00
2023-05-25T20:39:55.618Z,23.30
2023-05-25T20:45:00.165Z,24.30
2023-05-25T20:50:01.911Z,26.00
2023-05-25T20:55:03.940Z,27.10
2023-05-25T21:00:06.749Z,25.80
2023-05-25T21:05:09.063Z,23.50
2023-05-25T21:10:11.513Z,25.70
2023-05-25T21:15:19.118Z,26.80
2023-05-25T21:20:21.109Z,24.70
2023-05-25T21:25:22.998Z,26.40
2023-05-25T21:30:24.776Z,27.20
2023-05-25T21:35:26.597Z,27.40
2023-05-25T21:40:28.688Z,27.80
2023-05-25T21:45:31.240Z,26.70
2023-05-25T21:50:33.070Z,28.40
2023-05-25T21:55:54.837Z,28.00
2023-05-25T22:00:56.655Z,28.30
2023-05-25T22:05:58.565Z,29.10
2023-05-25T22:11:00.314Z,30.70
2023-05-25T22:16:02.077Z,30.00
2023-05-25T22:21:03.878Z,30.60
2023-05-25T22:26:05.828Z,29.00
2023-05-25T22:31:07.625Z,31.40
2023-05-25T22:36:09.376Z,33.70
2023-05-25T22:41:11.453Z,30.90
2023-05-25T22:46:13.242Z,34.00
2023-05-25T22:51:17.795Z,33.50
2023-05-25T22:56:19.504Z,31.30
2023-05-25T23:01:21.373Z,33.00
2023-05-25T23:06:23.198Z,31.70
2023-05-25T23:11:27.115Z,30.40
2023-05-25T23:16:29.507Z,34.10
2023-05-25T23:21:31.642Z,33.50
2023-05-25T23:26:33.686Z,32.20
2023-05-25T23:31:35.527Z,32.90
2023-05-25T23:36:37.339Z,31.60
2023-05-25T23:41:39.059Z,32.30
2023-05-25T23:46:41.865Z,30.90
2023-05-25T23:51:45.858Z,32.70
2023-05-25T23:56:49.544Z,30.10
